sensor_id;sensor_type;location;lat;lon;timestamp;temperature;humidity
837;DHT22;400;53.550;9.932;2023-04-03T00:00:29;4.00;99.90
837;DHT22;400;53.550;9.932;2023-04-03T00:02:57;3.90;99.90
837;DHT22;400;53.550;9.932;2023-04-03T00:05:23;3.90;99.90
837;DHT22;400;53.550;9.932;2023-04-03T00:07:50;3.90;99.90
837;DHT22;400;53.550;9.932;2023-04-03T00:10:18;3.90;99.90
837;DHT22;400;53.550;9.932;2023-04-03T00:12:46;3.90;99.90
837;DHT22;400;53.550;9.932;2023-04-03T00:15:13;3.90;99.90
837;DHT22;400;53.550;9.932;2023-04-03T00:17:40;3.90;99.90
837;DHT22;400;53.550;9.932;2023-04-03T00:20:07;3.90;99.90
837;DHT22;400;53.550;9.932;2023-04-03T00:22:34;4.00;99.90
837;DHT22;400;53.550;9.932;2023-04-03T00:25:01;4.00;99.90
837;DHT22;400;53.550;9.932;2023-04-03T00:27:28;3.90;99.90
837;DHT22;400;53.550;9.932;2023-04-03T00:29:56;4.00;99.90
837;DHT22;400;53.550;9.932;2023-04-03T00:32:24;4.00;99.90
837;DHT22;400;53.550;9.932;2023-04-03T00:34:50;4.00;99.90
837;DHT22;400;53.550;9.932;2023-04-03T00:37:17;4.00;99.90
837;DHT22;400;53.550;9.932;2023-04-03T00:39:44;4.00;99.90
837;DHT22;400;53.550;9.932;2023-04-03T00:42:11;3.90;99.90
837;DHT22;400;53.550;9.932;2023-04-03T00:47:46;3.90;99.90
837;DHT22;400;53.550;9.932;2023-04-03T00:50:17;3.90;99.90
837;DHT22;400;53.550;9.932;2023-04-03T00:52:44;3.90;99.90
837;DHT22;400;53.550;9.932;2023-04-03T00:55:15;3.90;99.90
837;DHT22;400;53.550;9.932;2023-04-03T00:57:42;3.90;99.90
837;DHT22;400;53.550;9.932;2023-04-03T01:00:12;3.90;99.90
837;DHT22;400;53.550;9.932;2023-04-03T01:02:41;3.90;99.90
837;DHT22;400;53.550;9.932;2023-04-03T01:05:09;3.90;99.90
837;DHT22;400;53.550;9.932;2023-04-03T01:07:37;3.80;99.90
837;DHT22;400;53.550;9.932;2023-04-03T01:10:07;3.80;99.90
837;DHT22;400;53.550;9.932;2023-04-03T01:12:36;3.80;99.90
837;DHT22;400;53.550;9.932;2023-04-03T01:15:08;3.80;99.90
837;DHT22;400;53.550;9.932;2023-04-03T01:17:36;3.80;99.90
837;DHT22;400;53.550;9.932;2023-04-03T01:20:36;3.80;99.90
837;DHT22;400;53.550;9.932;2023-04-03T01:25:56;3.80;99.90
837;DHT22;400;53.550;9.932;2023-04-03T01:28:25;3.80;99.90
837;DHT22;400;53.550;9.932;2023-04-03T01:30:58;3.80;99.90
837;DHT22;400;53.550;9.932;2023-04-03T01:33:27;3.80;99.90
837;DHT22;400;53.550;9.932;2023-04-03T01:35:53;3.80;99.90
837;DHT22;400;53.550;9.932;2023-04-03T01:38:20;3.80;99.90
837;DHT22;400;53.550;9.932;2023-04-03T01:40:47;3.80;99.90
837;DHT22;400;53.550;9.932;2023-04-03T01:43:15;3.80;99.90
837;DHT22;400;53.550;9.932;2023-04-03T01:45:41;3.80;99.90
837;DHT22;400;53.550;9.932;2023-04-03T01:48:08;3.80;99.90
837;DHT22;400;53.550;9.932;2023-04-03T01:50:37;3.80;99.90
837;DHT22;400;53.550;9.932;2023-04-03T01:53:03;3.80;99.90
837;DHT22;400;53.550;9.932;2023-04-03T01:55:30;3.80;99.90
837;DHT22;400;53.550;9.932;2023-04-03T01:57:57;3.80;99.90
837;DHT22;400;53.550;9.932;2023-04-03T02:00:24;3.80;99.90
837;DHT22;400;53.550;9.932;2023-04-03T02:02:52;3.80;99.90
837;DHT22;400;53.550;9.932;2023-04-03T02:05:19;3.80;99.90
837;DHT22;400;53.550;9.932;2023-04-03T02:07:48;3.70;99.90
837;DHT22;400;53.550;9.932;2023-04-03T02:10:16;3.70;99.90
837;DHT22;400;53.550;9.932;2023-04-03T02:12:43;3.60;99.90
837;DHT22;400;53.550;9.932;2023-04-03T02:15:10;3.60;99.90
837;DHT22;400;53.550;9.932;2023-04-03T02:17:37;3.60;99.90
837;DHT22;400;53.550;9.932;2023-04-03T02:20:05;3.60;99.90
837;DHT22;400;53.550;9.932;2023-04-03T02:22:32;3.60;99.90
837;DHT22;400;53.550;9.932;2023-04-03T02:25:00;3.60;99.90
837;DHT22;400;53.550;9.932;2023-04-03T02:27:27;3.60;99.90
837;DHT22;400;53.550;9.932;2023-04-03T02:29:54;3.60;99.90
837;DHT22;400;53.550;9.932;2023-04-03T02:32:21;3.60;99.90
837;DHT22;400;53.550;9.932;2023-04-03T02:34:47;3.50;99.90
837;DHT22;400;53.550;9.932;2023-04-03T02:37:14;3.50;99.90
837;DHT22;400;53.550;9.932;2023-04-03T02:39:41;3.50;99.90
837;DHT22;400;53.550;9.932;2023-04-03T02:42:09;3.40;99.90
837;DHT22;400;53.550;9.932;2023-04-03T02:44:36;3.40;99.90
837;DHT22;400;53.550;9.932;2023-04-03T02:47:04;3.30;99.90
837;DHT22;400;53.550;9.932;2023-04-03T02:49:31;3.30;99.90
837;DHT22;400;53.550;9.932;2023-04-03T02:51:58;3.30;99.90
837;DHT22;400;53.550;9.932;2023-04-03T02:54:28;3.30;99.90
837;DHT22;400;53.550;9.932;2023-04-03T02:56:56;3.30;99.90
837;DHT22;400;53.550;9.932;2023-04-03T02:59:24;3.30;99.90
837;DHT22;400;53.550;9.932;2023-04-03T03:01:51;3.30;99.90
837;DHT22;400;53.550;9.932;2023-04-03T03:04:18;3.30;99.90
837;DHT22;400;53.550;9.932;2023-04-03T03:06:45;3.30;99.90
837;DHT22;400;53.550;9.932;2023-04-03T03:09:14;3.20;99.90
837;DHT22;400;53.550;9.932;2023-04-03T03:11:41;3.20;99.90
837;DHT22;400;53.550;9.932;2023-04-03T03:14:08;3.20;99.90
837;DHT22;400;53.550;9.932;2023-04-03T03:16:36;3.20;99.90
837;DHT22;400;53.550;9.932;2023-04-03T03:19:03;3.20;99.90
837;DHT22;400;53.550;9.932;2023-04-03T03:21:30;3.20;99.90
837;DHT22;400;53.550;9.932;2023-04-03T03:23:57;3.20;99.90
837;DHT22;400;53.550;9.932;2023-04-03T03:26:24;3.20;99.90
837;DHT22;400;53.550;9.932;2023-04-03T03:28:53;3.10;99.90
837;DHT22;400;53.550;9.932;2023-04-03T03:31:20;3.10;99.90
837;DHT22;400;53.550;9.932;2023-04-03T03:33:48;3.10;99.90
837;DHT22;400;53.550;9.932;2023-04-03T03:36:15;3.10;99.90
837;DHT22;400;53.550;9.932;2023-04-03T03:38:42;3.10;99.90
837;DHT22;400;53.550;9.932;2023-04-03T03:41:09;3.10;99.90
837;DHT22;400;53.550;9.932;2023-04-03T03:43:36;3.10;99.90
837;DHT22;400;53.550;9.932;2023-04-03T03:46:03;3.00;99.90
837;DHT22;400;53.550;9.932;2023-04-03T03:48:30;3.00;99.90
837;DHT22;400;53.550;9.932;2023-04-03T03:50:58;3.00;99.90
837;DHT22;400;53.550;9.932;2023-04-03T03:53:25;3.00;99.90
837;DHT22;400;53.550;9.932;2023-04-03T03:55:54;3.00;99.90
837;DHT22;400;53.550;9.932;2023-04-03T03:58:26;3.00;99.90
837;DHT22;400;53.550;9.932;2023-04-03T04:00:55;2.90;99.90
837;DHT22;400;53.550;9.932;2023-04-03T04:03:22;2.90;99.90
837;DHT22;400;53.550;9.932;2023-04-03T04:05:49;2.90;99.90
837;DHT22;400;53.550;9.932;2023-04-03T04:08:17;2.90;99.90
837;DHT22;400;53.550;9.932;2023-04-03T04:10:44;2.90;99.90
837;DHT22;400;53.550;9.932;2023-04-03T04:13:11;2.90;99.90
837;DHT22;400;53.550;9.932;2023-04-03T04:15:38;2.90;99.90
837;DHT22;400;53.550;9.932;2023-04-03T04:18:06;2.90;99.90
837;DHT22;400;53.550;9.932;2023-04-03T04:20:36;2.80;99.90
837;DHT22;400;53.550;9.932;2023-04-03T04:23:07;2.80;99.90
837;DHT22;400;53.550;9.932;2023-04-03T04:25:38;2.80;99.90
837;DHT22;400;53.550;9.932;2023-04-03T04:28:05;2.80;99.90
837;DHT22;400;53.550;9.932;2023-04-03T04:30:32;2.80;99.90
837;DHT22;400;53.550;9.932;2023-04-03T04:32:59;2.80;99.90
837;DHT22;400;53.550;9.932;2023-04-03T04:35:26;2.80;99.90
837;DHT22;400;53.550;9.932;2023-04-03T04:37:53;2.80;99.90
837;DHT22;400;53.550;9.932;2023-04-03T04:40:20;2.80;99.90
837;DHT22;400;53.550;9.932;2023-04-03T04:42:48;2.80;99.90
837;DHT22;400;53.550;9.932;2023-04-03T04:45:15;2.80;99.90
837;DHT22;400;53.550;9.932;2023-04-03T04:47:42;2.80;99.90
837;DHT22;400;53.550;9.932;2023-04-03T04:50:10;2.80;99.90
837;DHT22;400;53.550;9.932;2023-04-03T04:52:38;2.80;99.90
837;DHT22;400;53.550;9.932;2023-04-03T04:55:06;2.80;99.90
837;DHT22;400;53.550;9.932;2023-04-03T04:57:34;2.80;99.90
837;DHT22;400;53.550;9.932;2023-04-03T05:00:04;2.80;99.90
837;DHT22;400;53.550;9.932;2023-04-03T05:02:31;2.80;99.90
837;DHT22;400;53.550;9.932;2023-04-03T05:04:57;2.80;99.90
837;DHT22;400;53.550;9.932;2023-04-03T05:07:26;2.90;99.90
837;DHT22;400;53.550;9.932;2023-04-03T05:09:55;2.80;99.90
837;DHT22;400;53.550;9.932;2023-04-03T05:12:21;2.80;99.90
837;DHT22;400;53.550;9.932;2023-04-03T05:14:50;2.80;99.90
837;DHT22;400;53.550;9.932;2023-04-03T05:17:18;2.80;99.90
837;DHT22;400;53.550;9.932;2023-04-03T05:19:45;2.80;99.90
837;DHT22;400;53.550;9.932;2023-04-03T05:22:12;2.80;99.90
837;DHT22;400;53.550;9.932;2023-04-03T05:24:39;2.80;99.90
837;DHT22;400;53.550;9.932;2023-04-03T05:27:06;2.80;99.90
837;DHT22;400;53.550;9.932;2023-04-03T05:29:33;2.80;99.90
837;DHT22;400;53.550;9.932;2023-04-03T05:31:59;2.80;99.90
837;DHT22;400;53.550;9.932;2023-04-03T05:34:28;2.80;99.90
837;DHT22;400;53.550;9.932;2023-04-03T05:36:55;2.80;99.90
837;DHT22;400;53.550;9.932;2023-04-03T05:39:21;2.80;99.90
837;DHT22;400;53.550;9.932;2023-04-03T05:41:49;2.80;99.90
837;DHT22;400;53.550;9.932;2023-04-03T05:44:18;2.80;99.90
837;DHT22;400;53.550;9.932;2023-04-03T05:46:46;2.80;99.90
837;DHT22;400;53.550;9.932;2023-04-03T05:49:13;2.90;99.90
837;DHT22;400;53.550;9.932;2023-04-03T05:51:43;2.90;99.90
837;DHT22;400;53.550;9.932;2023-04-03T05:54:16;2.90;99.90
837;DHT22;400;53.550;9.932;2023-04-03T05:56:48;3.00;99.90
837;DHT22;400;53.550;9.932;2023-04-03T05:59:21;3.00;99.90
837;DHT22;400;53.550;9.932;2023-04-03T06:01:52;3.10;99.90
837;DHT22;400;53.550;9.932;2023-04-03T06:04:19;3.20;99.90
837;DHT22;400;53.550;9.932;2023-04-03T06:06:50;3.20;99.90
837;DHT22;400;53.550;9.932;2023-04-03T06:09:22;3.30;99.90
837;DHT22;400;53.550;9.932;2023-04-03T06:11:51;3.30;99.90
837;DHT22;400;53.550;9.932;2023-04-03T06:14:18;3.40;99.90
837;DHT22;400;53.550;9.932;2023-04-03T06:16:46;3.50;99.90
837;DHT22;400;53.550;9.932;2023-04-03T06:19:14;3.50;99.90
837;DHT22;400;53.550;9.932;2023-04-03T06:21:41;3.50;99.90
837;DHT22;400;53.550;9.932;2023-04-03T06:24:13;3.60;99.90
837;DHT22;400;53.550;9.932;2023-04-03T06:26:44;3.70;99.90
837;DHT22;400;53.550;9.932;2023-04-03T06:29:16;3.70;99.90
837;DHT22;400;53.550;9.932;2023-04-03T06:31:46;3.80;99.90
837;DHT22;400;53.550;9.932;2023-04-03T06:34:14;3.90;99.90
837;DHT22;400;53.550;9.932;2023-04-03T06:36:45;3.90;99.90
837;DHT22;400;53.550;9.932;2023-04-03T06:39:16;4.00;99.90
837;DHT22;400;53.550;9.932;2023-04-03T06:41:43;4.10;99.90
837;DHT22;400;53.550;9.932;2023-04-03T06:44:10;4.10;99.90
837;DHT22;400;53.550;9.932;2023-04-03T06:46:40;4.10;99.90
837;DHT22;400;53.550;9.932;2023-04-03T06:49:09;4.20;99.90
837;DHT22;400;53.550;9.932;2023-04-03T06:51:36;4.20;99.90
837;DHT22;400;53.550;9.932;2023-04-03T06:54:04;4.30;99.90
837;DHT22;400;53.550;9.932;2023-04-03T06:56:33;4.40;99.90
837;DHT22;400;53.550;9.932;2023-04-03T06:59:00;4.40;99.90
837;DHT22;400;53.550;9.932;2023-04-03T07:01:29;4.60;99.90
837;DHT22;400;53.550;9.932;2023-04-03T07:03:57;4.60;99.90
837;DHT22;400;53.550;9.932;2023-04-03T07:06:24;4.70;99.90
837;DHT22;400;53.550;9.932;2023-04-03T07:08:52;4.80;99.90
837;DHT22;400;53.550;9.932;2023-04-03T07:11:19;4.90;99.90
837;DHT22;400;53.550;9.932;2023-04-03T07:13:48;4.90;99.90
837;DHT22;400;53.550;9.932;2023-04-03T07:16:15;5.00;99.90
837;DHT22;400;53.550;9.932;2023-04-03T07:18:42;5.10;99.90
837;DHT22;400;53.550;9.932;2023-04-03T07:21:09;5.20;99.90
837;DHT22;400;53.550;9.932;2023-04-03T07:23:39;5.20;99.90
837;DHT22;400;53.550;9.932;2023-04-03T07:26:06;5.30;99.90
837;DHT22;400;53.550;9.932;2023-04-03T07:28:36;5.30;99.90
837;DHT22;400;53.550;9.932;2023-04-03T07:31:12;5.40;99.90
837;DHT22;400;53.550;9.932;2023-04-03T07:33:41;5.40;99.90
837;DHT22;400;53.550;9.932;2023-04-03T07:36:11;5.50;99.90
837;DHT22;400;53.550;9.932;2023-04-03T07:38:41;5.50;99.90
837;DHT22;400;53.550;9.932;2023-04-03T07:41:14;5.50;99.90
837;DHT22;400;53.550;9.932;2023-04-03T07:43:45;5.60;99.90
837;DHT22;400;53.550;9.932;2023-04-03T07:46:17;5.60;99.90
837;DHT22;400;53.550;9.932;2023-04-03T07:48:44;5.70;99.90
837;DHT22;400;53.550;9.932;2023-04-03T07:51:12;5.80;99.90
837;DHT22;400;53.550;9.932;2023-04-03T07:53:43;5.90;99.90
837;DHT22;400;53.550;9.932;2023-04-03T07:56:12;5.90;99.90
837;DHT22;400;53.550;9.932;2023-04-03T07:58:39;5.90;99.90
837;DHT22;400;53.550;9.932;2023-04-03T08:01:09;6.00;99.90
837;DHT22;400;53.550;9.932;2023-04-03T08:03:38;6.00;99.90
837;DHT22;400;53.550;9.932;2023-04-03T08:06:07;6.00;99.90
837;DHT22;400;53.550;9.932;2023-04-03T08:08:34;6.00;99.90
837;DHT22;400;53.550;9.932;2023-04-03T08:11:03;6.00;99.90
837;DHT22;400;53.550;9.932;2023-04-03T08:13:32;6.10;99.90
837;DHT22;400;53.550;9.932;2023-04-03T08:16:08;6.20;99.90
837;DHT22;400;53.550;9.932;2023-04-03T08:18:38;6.30;99.90
837;DHT22;400;53.550;9.932;2023-04-03T08:21:07;6.20;99.90
837;DHT22;400;53.550;9.932;2023-04-03T08:23:37;6.20;99.90
837;DHT22;400;53.550;9.932;2023-04-03T08:26:14;6.20;99.90
837;DHT22;400;53.550;9.932;2023-04-03T08:28:44;6.30;99.90
837;DHT22;400;53.550;9.932;2023-04-03T08:31:16;6.30;99.90
837;DHT22;400;53.550;9.932;2023-04-03T08:33:49;6.30;99.90
837;DHT22;400;53.550;9.932;2023-04-03T08:36:22;6.40;99.90
837;DHT22;400;53.550;9.932;2023-04-03T08:38:54;6.50;99.90
837;DHT22;400;53.550;9.932;2023-04-03T08:41:29;6.60;99.90
837;DHT22;400;53.550;9.932;2023-04-03T08:44:05;6.70;99.90
837;DHT22;400;53.550;9.932;2023-04-03T08:46:46;6.70;99.90
837;DHT22;400;53.550;9.932;2023-04-03T08:49:22;6.70;99.90
837;DHT22;400;53.550;9.932;2023-04-03T08:51:52;6.70;99.90
837;DHT22;400;53.550;9.932;2023-04-03T08:54:28;6.80;99.90
837;DHT22;400;53.550;9.932;2023-04-03T08:56:59;6.80;99.90
837;DHT22;400;53.550;9.932;2023-04-03T08:59:34;6.80;99.90
837;DHT22;400;53.550;9.932;2023-04-03T09:02:04;6.90;99.90
837;DHT22;400;53.550;9.932;2023-04-03T09:04:40;7.00;99.90
837;DHT22;400;53.550;9.932;2023-04-03T09:07:10;7.10;99.90
837;DHT22;400;53.550;9.932;2023-04-03T09:09:41;7.10;99.90
837;DHT22;400;53.550;9.932;2023-04-03T09:12:17;7.00;99.90
837;DHT22;400;53.550;9.932;2023-04-03T09:14:52;7.10;99.90
837;DHT22;400;53.550;9.932;2023-04-03T09:17:35;7.10;99.90
837;DHT22;400;53.550;9.932;2023-04-03T09:20:20;7.20;99.90
837;DHT22;400;53.550;9.932;2023-04-03T09:22:52;7.30;99.90
837;DHT22;400;53.550;9.932;2023-04-03T09:25:23;7.30;99.90
837;DHT22;400;53.550;9.932;2023-04-03T09:27:55;7.40;99.90
837;DHT22;400;53.550;9.932;2023-04-03T09:30:23;7.60;99.90
837;DHT22;400;53.550;9.932;2023-04-03T09:32:54;7.60;99.90
837;DHT22;400;53.550;9.932;2023-04-03T09:35:26;7.70;99.90
837;DHT22;400;53.550;9.932;2023-04-03T09:38:00;7.70;99.90
837;DHT22;400;53.550;9.932;2023-04-03T09:40:33;7.80;99.90
837;DHT22;400;53.550;9.932;2023-04-03T09:43:20;7.80;99.30
837;DHT22;400;53.550;9.932;2023-04-03T09:45:49;7.90;99.00
837;DHT22;400;53.550;9.932;2023-04-03T09:48:18;7.90;98.20
837;DHT22;400;53.550;9.932;2023-04-03T09:50:58;8.00;98.50
837;DHT22;400;53.550;9.932;2023-04-03T09:53:34;8.10;98.60
837;DHT22;400;53.550;9.932;2023-04-03T09:56:04;8.10;98.20
837;DHT22;400;53.550;9.932;2023-04-03T09:58:32;8.20;97.70
837;DHT22;400;53.550;9.932;2023-04-03T10:01:01;8.30;97.50
837;DHT22;400;53.550;9.932;2023-04-03T10:03:30;8.40;97.30
837;DHT22;400;53.550;9.932;2023-04-03T10:06:03;8.50;98.90
837;DHT22;400;53.550;9.932;2023-04-03T10:08:35;8.40;97.60
837;DHT22;400;53.550;9.932;2023-04-03T10:11:16;8.40;96.60
837;DHT22;400;53.550;9.932;2023-04-03T10:13:53;8.40;97.00
837;DHT22;400;53.550;9.932;2023-04-03T10:16:25;8.50;96.70
837;DHT22;400;53.550;9.932;2023-04-03T10:19:03;8.50;95.20
837;DHT22;400;53.550;9.932;2023-04-03T10:21:40;8.50;95.20
837;DHT22;400;53.550;9.932;2023-04-03T10:24:16;8.50;94.00
837;DHT22;400;53.550;9.932;2023-04-03T10:26:55;8.50;93.00
837;DHT22;400;53.550;9.932;2023-04-03T10:29:36;8.40;92.90
837;DHT22;400;53.550;9.932;2023-04-03T10:32:21;8.50;93.10
837;DHT22;400;53.550;9.932;2023-04-03T10:35:00;8.40;92.60
837;DHT22;400;53.550;9.932;2023-04-03T10:37:39;8.40;92.80
837;DHT22;400;53.550;9.932;2023-04-03T10:40:18;8.50;92.40
837;DHT22;400;53.550;9.932;2023-04-03T10:42:52;8.50;92.10
837;DHT22;400;53.550;9.932;2023-04-03T10:45:27;8.60;92.40
837;DHT22;400;53.550;9.932;2023-04-03T10:48:02;8.60;92.60
837;DHT22;400;53.550;9.932;2023-04-03T10:50:40;8.60;92.50
837;DHT22;400;53.550;9.932;2023-04-03T10:53:20;8.50;92.20
837;DHT22;400;53.550;9.932;2023-04-03T10:55:59;8.70;91.80
837;DHT22;400;53.550;9.932;2023-04-03T10:58:32;8.60;91.10
837;DHT22;400;53.550;9.932;2023-04-03T11:01:05;8.60;90.70
837;DHT22;400;53.550;9.932;2023-04-03T11:03:36;8.70;90.50
837;DHT22;400;53.550;9.932;2023-04-03T11:06:09;8.70;90.70
837;DHT22;400;53.550;9.932;2023-04-03T11:08:43;8.90;90.50
837;DHT22;400;53.550;9.932;2023-04-03T11:11:14;8.90;90.30
837;DHT22;400;53.550;9.932;2023-04-03T11:13:46;9.00;90.30
837;DHT22;400;53.550;9.932;2023-04-03T11:16:20;9.10;90.20
837;DHT22;400;53.550;9.932;2023-04-03T11:18:52;8.90;90.60
837;DHT22;400;53.550;9.932;2023-04-03T11:21:27;8.90;90.30
837;DHT22;400;53.550;9.932;2023-04-03T11:24:05;9.00;90.80
837;DHT22;400;53.550;9.932;2023-04-03T11:26:38;9.20;90.60
837;DHT22;400;53.550;9.932;2023-04-03T11:29:11;9.50;90.70
837;DHT22;400;53.550;9.932;2023-04-03T11:31:53;9.60;90.70
837;DHT22;400;53.550;9.932;2023-04-03T11:34:33;9.50;91.10
837;DHT22;400;53.550;9.932;2023-04-03T11:37:05;9.30;91.30
837;DHT22;400;53.550;9.932;2023-04-03T11:39:38;9.30;91.20
837;DHT22;400;53.550;9.932;2023-04-03T11:42:15;9.50;91.50
837;DHT22;400;53.550;9.932;2023-04-03T11:44:42;9.50;91.00
837;DHT22;400;53.550;9.932;2023-04-03T11:47:12;9.50;91.20
837;DHT22;400;53.550;9.932;2023-04-03T11:50:05;9.40;91.40
837;DHT22;400;53.550;9.932;2023-04-03T11:52:59;9.50;90.80
837;DHT22;400;53.550;9.932;2023-04-03T11:55:55;9.60;91.20
837;DHT22;400;53.550;9.932;2023-04-03T11:58:24;9.70;91.70
837;DHT22;400;53.550;9.932;2023-04-03T12:01:03;9.80;90.60
837;DHT22;400;53.550;9.932;2023-04-03T12:04:04;9.80;90.00
837;DHT22;400;53.550;9.932;2023-04-03T12:10:17;9.90;91.00
837;DHT22;400;53.550;9.932;2023-04-03T12:12:59;10.10;89.40
837;DHT22;400;53.550;9.932;2023-04-03T12:15:49;10.30;88.40
837;DHT22;400;53.550;9.932;2023-04-03T12:18:42;10.00;89.50
837;DHT22;400;53.550;9.932;2023-04-03T12:21:10;10.00;89.80
837;DHT22;400;53.550;9.932;2023-04-03T12:24:01;10.10;89.60
837;DHT22;400;53.550;9.932;2023-04-03T12:26:35;10.10;89.50
837;DHT22;400;53.550;9.932;2023-04-03T12:29:19;10.00;90.00
837;DHT22;400;53.550;9.932;2023-04-03T12:32:06;10.00;87.80
837;DHT22;400;53.550;9.932;2023-04-03T12:34:49;10.30;88.00
837;DHT22;400;53.550;9.932;2023-04-03T12:37:56;10.40;86.10
837;DHT22;400;53.550;9.932;2023-04-03T12:40:33;10.50;86.30
837;DHT22;400;53.550;9.932;2023-04-03T12:43:17;10.60;85.60
837;DHT22;400;53.550;9.932;2023-04-03T12:45:56;10.60;85.60
837;DHT22;400;53.550;9.932;2023-04-03T12:48:32;10.70;85.80
837;DHT22;400;53.550;9.932;2023-04-03T12:51:06;10.60;85.50
837;DHT22;400;53.550;9.932;2023-04-03T12:53:40;10.70;85.80
837;DHT22;400;53.550;9.932;2023-04-03T12:56:23;10.60;84.60
837;DHT22;400;53.550;9.932;2023-04-03T12:58:53;10.50;84.40
837;DHT22;400;53.550;9.932;2023-04-03T13:01:25;10.40;85.50
837;DHT22;400;53.550;9.932;2023-04-03T13:03:58;10.50;86.00
837;DHT22;400;53.550;9.932;2023-04-03T13:06:41;10.30;86.20
837;DHT22;400;53.550;9.932;2023-04-03T13:09:19;9.90;86.30
837;DHT22;400;53.550;9.932;2023-04-03T13:11:53;9.70;87.60
837;DHT22;400;53.550;9.932;2023-04-03T13:14:26;9.70;88.50
837;DHT22;400;53.550;9.932;2023-04-03T13:17:02;9.60;88.40
837;DHT22;400;53.550;9.932;2023-04-03T13:19:32;9.50;88.20
837;DHT22;400;53.550;9.932;2023-04-03T13:22:05;9.50;87.70
837;DHT22;400;53.550;9.932;2023-04-03T13:24:37;9.50;87.00
837;DHT22;400;53.550;9.932;2023-04-03T13:27:12;9.30;87.80
837;DHT22;400;53.550;9.932;2023-04-03T13:29:42;9.40;88.20
837;DHT22;400;53.550;9.932;2023-04-03T13:32:18;9.40;87.00
837;DHT22;400;53.550;9.932;2023-04-03T13:34:46;9.60;86.90
837;DHT22;400;53.550;9.932;2023-04-03T13:37:24;9.70;86.60
837;DHT22;400;53.550;9.932;2023-04-03T13:40:01;9.80;86.60
837;DHT22;400;53.550;9.932;2023-04-03T13:42:30;9.70;86.90
837;DHT22;400;53.550;9.932;2023-04-03T13:45:17;9.70;86.90
837;DHT22;400;53.550;9.932;2023-04-03T13:47:48;9.70;87.10
837;DHT22;400;53.550;9.932;2023-04-03T13:50:18;9.50;86.70
837;DHT22;400;53.550;9.932;2023-04-03T13:52:50;9.40;86.20
837;DHT22;400;53.550;9.932;2023-04-03T13:55:25;9.00;85.50
837;DHT22;400;53.550;9.932;2023-04-03T13:57:57;9.20;86.20
837;DHT22;400;53.550;9.932;2023-04-03T14:00:33;9.30;85.50
837;DHT22;400;53.550;9.932;2023-04-03T14:03:13;9.40;85.50
837;DHT22;400;53.550;9.932;2023-04-03T14:05:41;9.40;85.40
837;DHT22;400;53.550;9.932;2023-04-03T14:08:08;9.50;84.80
837;DHT22;400;53.550;9.932;2023-04-03T14:10:37;9.50;84.60
837;DHT22;400;53.550;9.932;2023-04-03T14:13:05;9.60;84.50
837;DHT22;400;53.550;9.932;2023-04-03T14:15:32;9.70;84.90
837;DHT22;400;53.550;9.932;2023-04-03T14:17:59;9.60;84.70
837;DHT22;400;53.550;9.932;2023-04-03T14:20:28;9.60;82.60
837;DHT22;400;53.550;9.932;2023-04-03T14:22:55;9.50;80.00
837;DHT22;400;53.550;9.932;2023-04-03T14:25:22;9.40;81.00
837;DHT22;400;53.550;9.932;2023-04-03T14:27:53;9.40;82.10
837;DHT22;400;53.550;9.932;2023-04-03T14:30:23;9.40;84.20
837;DHT22;400;53.550;9.932;2023-04-03T14:32:51;9.40;84.70
837;DHT22;400;53.550;9.932;2023-04-03T14:35:22;9.50;85.00
837;DHT22;400;53.550;9.932;2023-04-03T14:37:55;9.50;84.70
837;DHT22;400;53.550;9.932;2023-04-03T14:40:27;9.40;83.10
837;DHT22;400;53.550;9.932;2023-04-03T14:42:56;9.40;83.40
837;DHT22;400;53.550;9.932;2023-04-03T14:45:24;9.40;83.70
837;DHT22;400;53.550;9.932;2023-04-03T14:47:53;9.40;84.30
837;DHT22;400;53.550;9.932;2023-04-03T14:50:23;9.40;83.60
837;DHT22;400;53.550;9.932;2023-04-03T14:52:55;9.50;84.20
837;DHT22;400;53.550;9.932;2023-04-03T14:55:24;9.50;85.50
837;DHT22;400;53.550;9.932;2023-04-03T14:57:52;9.50;84.50
837;DHT22;400;53.550;9.932;2023-04-03T15:00:21;9.50;85.10
837;DHT22;400;53.550;9.932;2023-04-03T15:02:50;9.60;85.10
837;DHT22;400;53.550;9.932;2023-04-03T15:05:17;9.60;85.90
837;DHT22;400;53.550;9.932;2023-04-03T15:07:47;9.50;86.30
837;DHT22;400;53.550;9.932;2023-04-03T15:10:18;9.40;86.40
837;DHT22;400;53.550;9.932;2023-04-03T15:12:47;9.50;86.30
837;DHT22;400;53.550;9.932;2023-04-03T15:15:17;9.50;85.70
837;DHT22;400;53.550;9.932;2023-04-03T15:17:47;9.60;85.20
837;DHT22;400;53.550;9.932;2023-04-03T15:20:21;9.70;85.40
837;DHT22;400;53.550;9.932;2023-04-03T15:22:49;9.60;85.30
837;DHT22;400;53.550;9.932;2023-04-03T15:25:17;9.60;85.80
837;DHT22;400;53.550;9.932;2023-04-03T15:27:47;9.70;87.30
837;DHT22;400;53.550;9.932;2023-04-03T15:30:18;9.80;87.40
837;DHT22;400;53.550;9.932;2023-04-03T15:32:46;9.80;86.90
837;DHT22;400;53.550;9.932;2023-04-03T15:35:13;9.60;87.00
837;DHT22;400;53.550;9.932;2023-04-03T15:37:40;9.50;88.10
837;DHT22;400;53.550;9.932;2023-04-03T15:40:09;9.40;87.90
837;DHT22;400;53.550;9.932;2023-04-03T15:42:38;9.40;88.40
837;DHT22;400;53.550;9.932;2023-04-03T15:45:06;9.40;88.80
837;DHT22;400;53.550;9.932;2023-04-03T15:47:33;9.30;89.50
837;DHT22;400;53.550;9.932;2023-04-03T15:50:00;9.40;90.40
837;DHT22;400;53.550;9.932;2023-04-03T15:52:29;9.40;90.30
837;DHT22;400;53.550;9.932;2023-04-03T15:54:58;9.30;90.20
837;DHT22;400;53.550;9.932;2023-04-03T15:57:29;9.40;90.20
837;DHT22;400;53.550;9.932;2023-04-03T16:00:05;9.40;90.40
837;DHT22;400;53.550;9.932;2023-04-03T16:02:36;9.30;91.00
837;DHT22;400;53.550;9.932;2023-04-03T16:05:05;9.20;91.20
837;DHT22;400;53.550;9.932;2023-04-03T16:07:40;9.20;90.90
837;DHT22;400;53.550;9.932;2023-04-03T16:10:12;9.10;90.70
837;DHT22;400;53.550;9.932;2023-04-03T16:12:47;9.10;90.80
837;DHT22;400;53.550;9.932;2023-04-03T16:15:18;9.10;90.80
837;DHT22;400;53.550;9.932;2023-04-03T16:17:47;9.00;90.80
837;DHT22;400;53.550;9.932;2023-04-03T16:20:18;8.90;91.00
837;DHT22;400;53.550;9.932;2023-04-03T16:22:47;9.00;90.90
837;DHT22;400;53.550;9.932;2023-04-03T16:25:14;9.10;90.90
837;DHT22;400;53.550;9.932;2023-04-03T16:27:42;9.10;91.00
837;DHT22;400;53.550;9.932;2023-04-03T16:30:10;8.90;91.20
837;DHT22;400;53.550;9.932;2023-04-03T16:32:39;8.90;91.40
837;DHT22;400;53.550;9.932;2023-04-03T16:35:07;8.90;91.60
837;DHT22;400;53.550;9.932;2023-04-03T16:37:37;8.80;92.10
837;DHT22;400;53.550;9.932;2023-04-03T16:40:09;8.70;92.00
837;DHT22;400;53.550;9.932;2023-04-03T16:42:39;8.80;92.30
837;DHT22;400;53.550;9.932;2023-04-03T16:45:07;8.80;92.50
837;DHT22;400;53.550;9.932;2023-04-03T16:47:34;8.70;92.30
837;DHT22;400;53.550;9.932;2023-04-03T16:50:06;8.70;92.30
837;DHT22;400;53.550;9.932;2023-04-03T16:52:36;8.70;92.20
837;DHT22;400;53.550;9.932;2023-04-03T16:55:06;8.60;92.60
837;DHT22;400;53.550;9.932;2023-04-03T16:57:36;8.50;92.70
837;DHT22;400;53.550;9.932;2023-04-03T17:00:05;8.50;92.70
837;DHT22;400;53.550;9.932;2023-04-03T17:02:33;8.40;92.80
837;DHT22;400;53.550;9.932;2023-04-03T17:05:00;8.30;93.00
837;DHT22;400;53.550;9.932;2023-04-03T17:07:32;8.30;93.10
837;DHT22;400;53.550;9.932;2023-04-03T17:10:04;8.30;93.20
837;DHT22;400;53.550;9.932;2023-04-03T17:12:33;8.30;93.40
837;DHT22;400;53.550;9.932;2023-04-03T17:15:03;8.30;93.30
837;DHT22;400;53.550;9.932;2023-04-03T17:17:32;8.30;93.20
837;DHT22;400;53.550;9.932;2023-04-03T17:20:01;8.30;93.40
837;DHT22;400;53.550;9.932;2023-04-03T17:22:30;8.20;93.50
837;DHT22;400;53.550;9.932;2023-04-03T17:25:00;8.20;93.80